Thompson Falls, Montana
Current Conditions -  °F | °C
As of 10:37 PM on Wednesday 17 Dec 2014 (Local Time) from KMLP Reporting Station
Light Snow Light Snow  
Wind Chill: 23°   Ceiling: 200
Heat Index: 28°   Visibility: 8mi
Dew Point: 27°   Wind: 5mph
Humidity: 96%   Direction: NA
Pressure: 29.88"   Gusts: NA
Location:  47.6°N, 115.34°W
Report Text: KMLP 180537Z AUTO VRB04KT 8SM -SN OVC002 M02/M03 A2988 RMK AO2 SNB32 P0000 T10221028
Loading
Personal Weather Stations






























Interactive Weather Map New forecast layout! Learn more

10-Day Weather Forecast

Advertisements
Track Severe Weather on mobile